sensor_id;sensor_type;location;lat;lon;timestamp;pressure;altitude;pressure_sealevel;temperature;humidity
32131;BME280;18639;50.716;7.086;2023-04-05T00:00:53;101182.81;;;2.92;94.38
32131;BME280;18639;50.716;7.086;2023-04-05T00:03:18;101181.03;;;2.94;93.67
32131;BME280;18639;50.716;7.086;2023-04-05T00:05:44;101174.31;;;2.90;93.62
32131;BME280;18639;50.716;7.086;2023-04-05T00:08:10;101181.13;;;2.91;94.50
32131;BME280;18639;50.716;7.086;2023-04-05T00:10:47;101165.91;;;2.87;95.18
32131;BME280;18639;50.716;7.086;2023-04-05T00:13:13;101151.59;;;2.78;95.44
32131;BME280;18639;50.716;7.086;2023-04-05T00:15:38;101161.63;;;2.87;95.27
32131;BME280;18639;50.716;7.086;2023-04-05T00:18:04;101134.75;;;2.71;95.46
32131;BME280;18639;50.716;7.086;2023-04-05T00:20:29;101157.41;;;2.85;95.27
32131;BME280;18639;50.716;7.086;2023-04-05T00:22:54;101159.03;;;2.89;95.26
32131;BME280;18639;50.716;7.086;2023-04-05T00:25:19;101146.47;;;2.80;95.95
32131;BME280;18639;50.716;7.086;2023-04-05T00:27:46;101152.91;;;2.99;96.55
32131;BME280;18639;50.716;7.086;2023-04-05T00:30:11;101152.94;;;2.97;97.26
32131;BME280;18639;50.716;7.086;2023-04-05T00:32:37;101142.00;;;2.89;96.92
32131;BME280;18639;50.716;7.086;2023-04-05T00:35:02;101112.69;;;2.67;96.72
32131;BME280;18639;50.716;7.086;2023-04-05T00:37:27;101150.41;;;2.96;96.14
32131;BME280;18639;50.716;7.086;2023-04-05T00:39:52;101121.88;;;2.77;95.74
32131;BME280;18639;50.716;7.086;2023-04-05T00:42:18;101163.28;;;2.90;95.64
32131;BME280;18639;50.716;7.086;2023-04-05T00:44:43;101148.81;;;2.89;96.25
32131;BME280;18639;50.716;7.086;2023-04-05T00:47:09;101159.78;;;2.94;96.72
32131;BME280;18639;50.716;7.086;2023-04-05T00:49:35;101143.81;;;2.84;96.80
32131;BME280;18639;50.716;7.086;2023-04-05T00:52:02;101151.34;;;2.90;96.91
32131;BME280;18639;50.716;7.086;2023-04-05T00:54:28;101158.16;;;2.91;96.53
32131;BME280;18639;50.716;7.086;2023-04-05T00:56:57;101157.22;;;2.94;97.44
32131;BME280;18639;50.716;7.086;2023-04-05T00:59:26;101145.47;;;2.88;97.42
32131;BME280;18639;50.716;7.086;2023-04-05T01:02:32;101118.38;;;2.81;97.75
32131;BME280;18639;50.716;7.086;2023-04-05T01:10:33;101128.19;;;3.00;97.95
32131;BME280;18639;50.716;7.086;2023-04-05T01:12:59;101150.03;;;3.14;98.30
32131;BME280;18639;50.716;7.086;2023-04-05T01:15:24;101127.41;;;2.97;98.40
32131;BME280;18639;50.716;7.086;2023-04-05T01:17:50;101135.47;;;3.18;98.22
32131;BME280;18639;50.716;7.086;2023-04-05T01:20:18;101133.00;;;3.15;97.70
32131;BME280;18639;50.716;7.086;2023-04-05T01:26:05;101136.09;;;3.29;97.37
32131;BME280;18639;50.716;7.086;2023-04-05T01:28:54;101130.03;;;3.33;96.71
32131;BME280;18639;50.716;7.086;2023-04-05T01:31:28;101114.81;;;3.28;96.79
32131;BME280;18639;50.716;7.086;2023-04-05T01:34:14;101125.66;;;3.38;96.62
32131;BME280;18639;50.716;7.086;2023-04-05T01:36:48;101124.69;;;3.42;96.42
32131;BME280;18639;50.716;7.086;2023-04-05T01:39:16;101131.50;;;3.43;96.43
32131;BME280;18639;50.716;7.086;2023-04-05T01:41:44;101122.25;;;3.37;96.08
32131;BME280;18639;50.716;7.086;2023-04-05T01:44:09;101114.53;;;3.41;95.67
32131;BME280;18639;50.716;7.086;2023-04-05T01:46:35;101110.31;;;3.39;95.75
32131;BME280;18639;50.716;7.086;2023-04-05T01:49:00;101115.31;;;3.44;96.05
32131;BME280;18639;50.716;7.086;2023-04-05T01:51:26;101119.66;;;3.41;95.56
32131;BME280;18639;50.716;7.086;2023-04-05T01:53:52;101088.44;;;3.28;95.38
32131;BME280;18639;50.716;7.086;2023-04-05T01:56:17;101108.47;;;3.45;95.73
32131;BME280;18639;50.716;7.086;2023-04-05T01:58:42;101111.06;;;3.43;96.41
32131;BME280;18639;50.716;7.086;2023-04-05T02:01:07;101106.81;;;3.42;95.99
32131;BME280;18639;50.716;7.086;2023-04-05T02:03:33;101092.59;;;3.32;95.58
32131;BME280;18639;50.716;7.086;2023-04-05T02:05:58;101094.38;;;3.28;95.36
32131;BME280;18639;50.716;7.086;2023-04-05T02:08:23;101079.38;;;3.15;96.00
32131;BME280;18639;50.716;7.086;2023-04-05T02:10:51;101113.81;;;3.35;96.30
32131;BME280;18639;50.716;7.086;2023-04-05T02:13:17;101104.44;;;3.36;96.37
32131;BME280;18639;50.716;7.086;2023-04-05T02:15:47;101107.03;;;3.33;96.56
32131;BME280;18639;50.716;7.086;2023-04-05T02:18:12;101103.75;;;3.28;96.87
32131;BME280;18639;50.716;7.086;2023-04-05T02:20:38;101099.00;;;3.11;96.92
32131;BME280;18639;50.716;7.086;2023-04-05T02:23:03;101103.22;;;3.14;97.12
32131;BME280;18639;50.716;7.086;2023-04-05T02:25:28;101107.47;;;3.15;97.58
32131;BME280;18639;50.716;7.086;2023-04-05T02:27:53;101095.84;;;3.00;97.52
32131;BME280;18639;50.716;7.086;2023-04-05T02:30:19;101089.91;;;3.00;96.92
32131;BME280;18639;50.716;7.086;2023-04-05T02:32:44;101084.16;;;2.90;98.38
32131;BME280;18639;50.716;7.086;2023-04-05T02:35:12;101099.38;;;2.94;98.03
32131;BME280;18639;50.716;7.086;2023-04-05T02:37:38;101113.78;;;2.99;98.43
32131;BME280;18639;50.716;7.086;2023-04-05T02:40:07;101105.22;;;3.00;98.62
32131;BME280;18639;50.716;7.086;2023-04-05T02:42:33;101079.25;;;2.81;99.40
32131;BME280;18639;50.716;7.086;2023-04-05T02:44:59;101066.59;;;2.76;99.75
32131;BME280;18639;50.716;7.086;2023-04-05T02:47:24;101099.38;;;2.94;100.00
32131;BME280;18639;50.716;7.086;2023-04-05T02:49:49;101102.72;;;2.98;100.00
32131;BME280;18639;50.716;7.086;2023-04-05T02:52:15;101088.47;;;2.88;99.92
32131;BME280;18639;50.716;7.086;2023-04-05T02:54:40;101059.88;;;2.72;99.29
32131;BME280;18639;50.716;7.086;2023-04-05T02:57:06;101075.84;;;2.80;99.02
32131;BME280;18639;50.716;7.086;2023-04-05T02:59:35;101094.53;;;2.82;98.37
32131;BME280;18639;50.716;7.086;2023-04-05T03:02:00;101092.22;;;2.72;98.74
32131;BME280;18639;50.716;7.086;2023-04-05T03:04:26;101087.25;;;2.64;98.68
32131;BME280;18639;50.716;7.086;2023-04-05T03:06:51;101086.63;;;2.53;99.00
32131;BME280;18639;50.716;7.086;2023-04-05T03:09:19;101092.59;;;2.52;99.91
32131;BME280;18639;50.716;7.086;2023-04-05T03:11:45;101075.03;;;2.37;99.86
32131;BME280;18639;50.716;7.086;2023-04-05T03:14:10;101088.50;;;2.43;99.60
32131;BME280;18639;50.716;7.086;2023-04-05T03:16:36;101101.25;;;2.45;99.88
32131;BME280;18639;50.716;7.086;2023-04-05T03:19:03;101049.19;;;2.10;100.00
32131;BME280;18639;50.716;7.086;2023-04-05T03:21:30;101085.41;;;2.29;100.00
32131;BME280;18639;50.716;7.086;2023-04-05T03:23:56;101051.06;;;2.02;100.00
32131;BME280;18639;50.716;7.086;2023-04-05T03:26:21;101112.59;;;2.29;100.00
32131;BME280;18639;50.716;7.086;2023-04-05T03:28:47;101111.84;;;2.24;100.00
32131;BME280;18639;50.716;7.086;2023-04-05T03:31:13;101103.56;;;2.11;100.00
32131;BME280;18639;50.716;7.086;2023-04-05T03:33:38;101115.44;;;2.14;100.00
32131;BME280;18639;50.716;7.086;2023-04-05T03:36:04;101109.59;;;2.07;100.00
32131;BME280;18639;50.716;7.086;2023-04-05T03:38:29;101093.56;;;2.00;100.00
32131;BME280;18639;50.716;7.086;2023-04-05T03:40:56;101086.09;;;1.91;100.00
32131;BME280;18639;50.716;7.086;2023-04-05T03:43:21;101092.81;;;1.95;100.00
32131;BME280;18639;50.716;7.086;2023-04-05T03:45:47;101094.53;;;1.93;100.00
32131;BME280;18639;50.716;7.086;2023-04-05T03:48:12;101103.84;;;1.94;100.00
32131;BME280;18639;50.716;7.086;2023-04-05T03:50:37;101085.34;;;1.85;100.00
32131;BME280;18639;50.716;7.086;2023-04-05T03:53:03;101088.63;;;1.91;100.00
32131;BME280;18639;50.716;7.086;2023-04-05T03:55:28;101055.81;;;1.73;100.00
32131;BME280;18639;50.716;7.086;2023-04-05T03:57:53;101086.97;;;1.87;100.00
32131;BME280;18639;50.716;7.086;2023-04-05T04:00:19;101079.38;;;1.86;100.00
32131;BME280;18639;50.716;7.086;2023-04-05T04:02:48;101082.00;;;1.81;100.00
32131;BME280;18639;50.716;7.086;2023-04-05T04:05:15;101085.34;;;1.85;100.00
32131;BME280;18639;50.716;7.086;2023-04-05T04:07:41;101062.66;;;1.69;100.00
32131;BME280;18639;50.716;7.086;2023-04-05T04:10:08;101078.69;;;1.76;100.00
32131;BME280;18639;50.716;7.086;2023-04-05T04:12:33;101071.25;;;1.65;100.00
32131;BME280;18639;50.716;7.086;2023-04-05T04:14:59;101080.41;;;1.74;100.00
32131;BME280;18639;50.716;7.086;2023-04-05T04:17:32;101078.72;;;1.73;100.00
32131;BME280;18639;50.716;7.086;2023-04-05T04:19:58;101077.13;;;1.69;100.00
32131;BME280;18639;50.716;7.086;2023-04-05T04:22:24;101083.13;;;1.65;100.00
32131;BME280;18639;50.716;7.086;2023-04-05T04:24:58;101081.53;;;1.59;100.00
32131;BME280;18639;50.716;7.086;2023-04-05T04:27:27;101067.13;;;1.57;100.00
32131;BME280;18639;50.716;7.086;2023-04-05T04:29:53;101084.03;;;1.61;100.00
32131;BME280;18639;50.716;7.086;2023-04-05T04:32:20;101068.03;;;1.54;100.00
32131;BME280;18639;50.716;7.086;2023-04-05T04:34:50;101050.38;;;1.44;100.00
32131;BME280;18639;50.716;7.086;2023-04-05T04:37:18;101070.59;;;1.53;100.00
32131;BME280;18639;50.716;7.086;2023-04-05T04:39:47;101073.13;;;1.54;100.00
32131;BME280;18639;50.716;7.086;2023-04-05T04:42:14;101075.59;;;1.59;100.00
32131;BME280;18639;50.716;7.086;2023-04-05T04:44:44;101080.69;;;1.59;100.00
32131;BME280;18639;50.716;7.086;2023-04-05T04:47:09;101075.69;;;1.53;100.00
32131;BME280;18639;50.716;7.086;2023-04-05T04:49:40;101072.38;;;1.48;100.00
32131;BME280;18639;50.716;7.086;2023-04-05T04:52:06;101048.81;;;1.34;100.00
32131;BME280;18639;50.716;7.086;2023-04-05T04:54:31;101089.41;;;1.44;100.00
32131;BME280;18639;50.716;7.086;2023-04-05T04:56:58;101081.00;;;1.38;100.00
32131;BME280;18639;50.716;7.086;2023-04-05T04:59:24;101078.47;;;1.38;100.00
32131;BME280;18639;50.716;7.086;2023-04-05T05:01:49;101089.41;;;1.43;100.00
32131;BME280;18639;50.716;7.086;2023-04-05T05:04:14;101098.63;;;1.50;100.00
32131;BME280;18639;50.716;7.086;2023-04-05T05:06:40;101070.09;;;1.30;100.00
32131;BME280;18639;50.716;7.086;2023-04-05T05:09:05;101093.59;;;1.45;100.00
32131;BME280;18639;50.716;7.086;2023-04-05T05:11:31;101097.03;;;1.44;100.00
32131;BME280;18639;50.716;7.086;2023-04-05T05:13:56;101097.75;;;1.51;100.00
32131;BME280;18639;50.716;7.086;2023-04-05T05:16:21;101101.16;;;1.51;100.00
32131;BME280;18639;50.716;7.086;2023-04-05T05:18:47;101080.94;;;1.41;100.00
32131;BME280;18639;50.716;7.086;2023-04-05T05:21:13;101083.47;;;1.44;100.00
32131;BME280;18639;50.716;7.086;2023-04-05T05:23:39;101101.00;;;1.60;100.00
32131;BME280;18639;50.716;7.086;2023-04-05T05:26:05;101086.00;;;1.44;100.00
32131;BME280;18639;50.716;7.086;2023-04-05T05:28:30;101070.75;;;1.44;100.00
32131;BME280;18639;50.716;7.086;2023-04-05T05:30:56;101075.63;;;1.56;100.00
32131;BME280;18639;50.716;7.086;2023-04-05T05:33:21;101090.88;;;1.59;100.00
32131;BME280;18639;50.716;7.086;2023-04-05T05:35:48;101087.34;;;1.66;100.00
32131;BME280;18639;50.716;7.086;2023-04-05T05:38:13;101091.63;;;1.64;100.00
32131;BME280;18639;50.716;7.086;2023-04-05T05:40:39;101079.69;;;1.67;100.00
32131;BME280;18639;50.716;7.086;2023-04-05T05:43:04;101079.59;;;1.72;100.00
32131;BME280;18639;50.716;7.086;2023-04-05T05:45:29;101076.16;;;1.76;100.00
32131;BME280;18639;50.716;7.086;2023-04-05T05:47:55;101023.03;;;1.55;100.00
32131;BME280;18639;50.716;7.086;2023-04-05T05:50:20;101087.63;;;2.00;100.00
32131;BME280;18639;50.716;7.086;2023-04-05T05:52:45;101080.72;;;2.06;100.00
32131;BME280;18639;50.716;7.086;2023-04-05T05:55:10;101066.22;;;2.08;100.00
32131;BME280;18639;50.716;7.086;2023-04-05T05:57:36;101062.03;;;2.06;100.00
32131;BME280;18639;50.716;7.086;2023-04-05T06:00:03;101092.97;;;2.34;100.00
32131;BME280;18639;50.716;7.086;2023-04-05T06:02:33;101076.78;;;2.35;100.00
32131;BME280;18639;50.716;7.086;2023-04-05T06:04:58;101095.22;;;2.49;100.00
32131;BME280;18639;50.716;7.086;2023-04-05T06:07:23;101086.69;;;2.50;100.00
32131;BME280;18639;50.716;7.086;2023-04-05T06:09:48;101072.19;;;2.52;100.00
32131;BME280;18639;50.716;7.086;2023-04-05T06:12:14;101078.00;;;2.60;100.00
32131;BME280;18639;50.716;7.086;2023-04-05T06:14:39;101086.19;;;2.74;100.00
32131;BME280;18639;50.716;7.086;2023-04-05T06:17:04;101076.81;;;2.75;100.00
32131;BME280;18639;50.716;7.086;2023-04-05T06:19:30;101095.28;;;2.87;100.00
32131;BME280;18639;50.716;7.086;2023-04-05T06:21:55;101085.84;;;2.91;100.00
32131;BME280;18639;50.716;7.086;2023-04-05T06:24:20;101087.56;;;2.89;100.00
32131;BME280;18639;50.716;7.086;2023-04-05T06:26:46;101089.97;;;2.96;100.00
32131;BME280;18639;50.716;7.086;2023-04-05T06:29:11;101087.34;;;3.00;99.27
32131;BME280;18639;50.716;7.086;2023-04-05T06:31:36;101091.31;;;3.13;99.01
32131;BME280;18639;50.716;7.086;2023-04-05T06:34:02;101076.38;;;2.96;100.00
32131;BME280;18639;50.716;7.086;2023-04-05T06:36:30;101084.31;;;3.21;100.00
32131;BME280;18639;50.716;7.086;2023-04-05T06:38:56;101084.19;;;3.27;98.96
32131;BME280;18639;50.716;7.086;2023-04-05T06:41:21;101090.94;;;3.31;99.46
32131;BME280;18639;50.716;7.086;2023-04-05T06:43:47;101094.03;;;3.42;99.99
32131;BME280;18639;50.716;7.086;2023-04-05T06:46:12;101066.00;;;3.41;100.00
32131;BME280;18639;50.716;7.086;2023-04-05T06:48:38;101068.22;;;3.54;99.62
32131;BME280;18639;50.716;7.086;2023-04-05T06:51:03;101062.06;;;3.63;98.03
32131;BME280;18639;50.716;7.086;2023-04-05T06:53:29;101075.31;;;3.78;97.21
32131;BME280;18639;50.716;7.086;2023-04-05T06:55:56;101087.56;;;3.98;97.12
32131;BME280;18639;50.716;7.086;2023-04-05T06:58:22;101069.56;;;4.03;97.54
32131;BME280;18639;50.716;7.086;2023-04-05T07:00:48;101046.63;;;4.00;96.38
32131;BME280;18639;50.716;7.086;2023-04-05T07:03:13;101026.19;;;4.00;95.65
32131;BME280;18639;50.716;7.086;2023-04-05T07:05:39;101062.88;;;4.30;91.21
32131;BME280;18639;50.716;7.086;2023-04-05T07:08:04;101075.94;;;4.50;91.50
32131;BME280;18639;50.716;7.086;2023-04-05T07:10:29;101075.47;;;4.66;90.63
32131;BME280;18639;50.716;7.086;2023-04-05T07:12:55;101070.00;;;4.79;87.27
32131;BME280;18639;50.716;7.086;2023-04-05T07:15:20;101063.72;;;4.89;87.12
32131;BME280;18639;50.716;7.086;2023-04-05T07:17:45;101068.31;;;5.07;85.47
32131;BME280;18639;50.716;7.086;2023-04-05T07:20:11;101072.16;;;5.20;82.64
32131;BME280;18639;50.716;7.086;2023-04-05T07:22:36;101070.06;;;5.33;82.04
32131;BME280;18639;50.716;7.086;2023-04-05T07:25:02;101046.16;;;5.32;79.90
32131;BME280;18639;50.716;7.086;2023-04-05T07:27:28;101056.38;;;5.60;78.76
32131;BME280;18639;50.716;7.086;2023-04-05T07:29:55;101066.97;;;5.76;76.60
32131;BME280;18639;50.716;7.086;2023-04-05T07:32:20;101061.44;;;5.88;75.99
32131;BME280;18639;50.716;7.086;2023-04-05T07:34:45;101058.75;;;5.93;74.06
32131;BME280;18639;50.716;7.086;2023-04-05T07:37:12;101054.69;;;6.10;74.93
32131;BME280;18639;50.716;7.086;2023-04-05T07:39:37;101054.16;;;6.25;72.76
32131;BME280;18639;50.716;7.086;2023-04-05T07:42:03;101053.13;;;6.54;69.94
32131;BME280;18639;50.716;7.086;2023-04-05T07:44:29;101043.03;;;6.73;71.45
32131;BME280;18639;50.716;7.086;2023-04-05T07:46:54;101053.56;;;7.10;68.38
32131;BME280;18639;50.716;7.086;2023-04-05T07:49:24;101051.31;;;7.45;67.05
32131;BME280;18639;50.716;7.086;2023-04-05T07:51:49;101047.19;;;7.63;63.90
32131;BME280;18639;50.716;7.086;2023-04-05T07:54:15;101051.47;;;8.02;64.28
32131;BME280;18639;50.716;7.086;2023-04-05T07:56:40;101048.88;;;8.23;61.53
32131;BME280;18639;50.716;7.086;2023-04-05T07:59:07;101062.50;;;8.65;59.80
32131;BME280;18639;50.716;7.086;2023-04-05T08:01:32;101008.56;;;8.61;57.03
32131;BME280;18639;50.716;7.086;2023-04-05T08:03:58;101051.09;;;9.07;55.56
32131;BME280;18639;50.716;7.086;2023-04-05T08:06:23;101044.03;;;9.29;55.58
32131;BME280;18639;50.716;7.086;2023-04-05T08:08:49;101052.00;;;9.59;55.13
32131;BME280;18639;50.716;7.086;2023-04-05T08:11:14;101036.78;;;9.71;51.37
32131;BME280;18639;50.716;7.086;2023-04-05T08:13:40;101036.13;;;9.84;51.45
32131;BME280;18639;50.716;7.086;2023-04-05T08:16:06;101038.19;;;9.94;51.15
32131;BME280;18639;50.716;7.086;2023-04-05T08:18:32;101034.16;;;10.23;50.10
32131;BME280;18639;50.716;7.086;2023-04-05T08:20:57;101032.44;;;10.39;49.59
32131;BME280;18639;50.716;7.086;2023-04-05T08:23:22;101005.50;;;10.43;48.59
32131;BME280;18639;50.716;7.086;2023-04-05T08:25:48;101034.72;;;10.77;47.47
32131;BME280;18639;50.716;7.086;2023-04-05T08:28:14;101017.38;;;10.94;48.89
32131;BME280;18639;50.716;7.086;2023-04-05T08:30:39;101027.56;;;11.27;48.99
32131;BME280;18639;50.716;7.086;2023-04-05T08:33:05;101023.25;;;11.58;49.21
32131;BME280;18639;50.716;7.086;2023-04-05T08:35:31;101031.72;;;11.75;46.84
32131;BME280;18639;50.716;7.086;2023-04-05T08:37:56;101032.97;;;11.98;45.91
32131;BME280;18639;50.716;7.086;2023-04-05T08:40:32;101031.22;;;12.13;45.61
32131;BME280;18639;50.716;7.086;2023-04-05T08:43:30;101010.41;;;12.00;44.21
32131;BME280;18639;50.716;7.086;2023-04-05T08:45:58;101024.44;;;12.53;46.25
32131;BME280;18639;50.716;7.086;2023-04-05T08:48:25;101024.44;;;12.53;43.34
32131;BME280;18639;50.716;7.086;2023-04-05T08:50:53;101030.44;;;12.82;42.35
32131;BME280;18639;50.716;7.086;2023-04-05T08:53:20;101022.50;;;12.97;42.29
32131;BME280;18639;50.716;7.086;2023-04-05T08:55:50;101024.88;;;13.54;41.33
32131;BME280;18639;50.716;7.086;2023-04-05T08:58:16;101022.22;;;13.94;39.33
32131;BME280;18639;50.716;7.086;2023-04-05T09:00:41;101026.16;;;14.86;40.22
32131;BME280;18639;50.716;7.086;2023-04-05T09:03:12;101023.81;;;15.42;37.10
32131;BME280;18639;50.716;7.086;2023-04-05T09:05:40;101013.34;;;16.23;36.11
32131;BME280;18639;50.716;7.086;2023-04-05T09:08:08;101029.31;;;17.17;35.05
32131;BME280;18639;50.716;7.086;2023-04-05T09:10:34;101006.28;;;17.84;33.49
32131;BME280;18639;50.716;7.086;2023-04-05T09:13:00;100991.16;;;17.78;31.63
32131;BME280;18639;50.716;7.086;2023-04-05T09:15:28;100995.16;;;18.52;32.41
32131;BME280;18639;50.716;7.086;2023-04-05T09:17:54;101011.41;;;19.06;31.76
32131;BME280;18639;50.716;7.086;2023-04-05T09:20:20;101000.09;;;19.15;30.85
32131;BME280;18639;50.716;7.086;2023-04-05T09:22:46;101006.97;;;19.73;30.94
32131;BME280;18639;50.716;7.086;2023-04-05T09:28:00;101011.69;;;19.12;29.17
32131;BME280;18639;50.716;7.086;2023-04-05T09:30:27;100991.97;;;19.27;29.56
32131;BME280;18639;50.716;7.086;2023-04-05T09:32:54;101003.81;;;19.31;28.63
32131;BME280;18639;50.716;7.086;2023-04-05T09:35:24;100984.34;;;19.34;28.86
32131;BME280;18639;50.716;7.086;2023-04-05T09:37:52;100988.88;;;20.17;28.71
32131;BME280;18639;50.716;7.086;2023-04-05T09:40:17;100986.50;;;19.87;27.89
32131;BME280;18639;50.716;7.086;2023-04-05T09:42:44;100983.00;;;19.20;27.74
32131;BME280;18639;50.716;7.086;2023-04-05T09:45:10;100996.78;;;19.03;28.10
32131;BME280;18639;50.716;7.086;2023-04-05T09:47:35;100975.97;;;19.02;27.96
32131;BME280;18639;50.716;7.086;2023-04-05T09:50:22;100984.66;;;18.03;27.75
32131;BME280;18639;50.716;7.086;2023-04-05T09:52:47;100959.84;;;17.67;30.52
32131;BME280;18639;50.716;7.086;2023-04-05T09:55:16;100982.22;;;17.81;29.41
32131;BME280;18639;50.716;7.086;2023-04-05T09:57:49;100972.88;;;18.18;29.07
32131;BME280;18639;50.716;7.086;2023-04-05T10:00:21;100971.69;;;18.32;29.53
32131;BME280;18639;50.716;7.086;2023-04-05T10:02:51;100970.31;;;17.97;29.62
32131;BME280;18639;50.716;7.086;2023-04-05T10:05:17;100946.94;;;17.75;30.15
32131;BME280;18639;50.716;7.086;2023-04-05T10:07:42;100973.88;;;18.86;30.03
32131;BME280;18639;50.716;7.086;2023-04-05T10:10:11;100972.66;;;19.09;27.80
32131;BME280;18639;50.716;7.086;2023-04-05T10:12:38;100940.81;;;18.26;29.46
32131;BME280;18639;50.716;7.086;2023-04-05T10:15:08;100966.84;;;18.77;28.16
32131;BME280;18639;50.716;7.086;2023-04-05T10:17:38;100959.81;;;18.58;27.96
32131;BME280;18639;50.716;7.086;2023-04-05T10:20:21;100942.41;;;18.47;28.52
32131;BME280;18639;50.716;7.086;2023-04-05T10:25:26;100949.59;;;18.55;27.70
32131;BME280;18639;50.716;7.086;2023-04-05T10:27:54;100962.22;;;18.40;29.42
32131;BME280;18639;50.716;7.086;2023-04-05T10:30:24;100942.50;;;17.96;28.49
32131;BME280;18639;50.716;7.086;2023-04-05T10:38:28;100954.84;;;18.15;29.80
32131;BME280;18639;50.716;7.086;2023-04-05T10:40:56;100944.22;;;17.56;28.98
32131;BME280;18639;50.716;7.086;2023-04-05T10:43:25;100957.47;;;16.91;29.18
32131;BME280;18639;50.716;7.086;2023-04-05T10:45:52;100956.00;;;16.77;30.78
32131;BME280;18639;50.716;7.086;2023-04-05T10:48:39;100948.16;;;16.12;30.34
32131;BME280;18639;50.716;7.086;2023-04-05T10:51:08;100940.31;;;16.12;31.40
32131;BME280;18639;50.716;7.086;2023-04-05T10:53:36;100949.56;;;15.36;31.77
32131;BME280;18639;50.716;7.086;2023-04-05T10:56:02;100918.72;;;15.08;32.39
32131;BME280;18639;50.716;7.086;2023-04-05T10:58:28;100924.41;;;14.78;32.11
32131;BME280;18639;50.716;7.086;2023-04-05T11:00:56;100922.75;;;14.04;34.09
32131;BME280;18639;50.716;7.086;2023-04-05T11:06:31;100933.78;;;12.92;35.21
32131;BME280;18639;50.716;7.086;2023-04-05T11:11:38;100920.91;;;12.64;36.38
32131;BME280;18639;50.716;7.086;2023-04-05T11:16:45;100930.09;;;12.29;37.91
32131;BME280;18639;50.716;7.086;2023-04-05T11:19:10;100933.22;;;12.19;37.51
32131;BME280;18639;50.716;7.086;2023-04-05T11:21:36;100926.22;;;11.93;36.85
32131;BME280;18639;50.716;7.086;2023-04-05T11:24:08;100924.00;;;12.01;37.70
32131;BME280;18639;50.716;7.086;2023-04-05T11:29:04;100912.81;;;12.01;37.46
32131;BME280;18639;50.716;7.086;2023-04-05T11:31:29;100905.13;;;11.99;36.65
32131;BME280;18639;50.716;7.086;2023-04-05T11:33:56;100924.72;;;12.17;37.61
32131;BME280;18639;50.716;7.086;2023-04-05T11:36:41;100919.91;;;12.11;36.61
32131;BME280;18639;50.716;7.086;2023-04-05T11:41:53;100912.16;;;11.97;36.85
32131;BME280;18639;50.716;7.086;2023-04-05T11:44:18;100902.09;;;11.78;36.60
32131;BME280;18639;50.716;7.086;2023-04-05T11:46:47;100912.03;;;11.56;37.20
32131;BME280;18639;50.716;7.086;2023-04-05T11:49:13;100903.97;;;11.61;39.10
32131;BME280;18639;50.716;7.086;2023-04-05T11:51:42;100905.53;;;11.49;37.76
32131;BME280;18639;50.716;7.086;2023-04-05T11:54:11;100900.75;;;11.57;36.44
32131;BME280;18639;50.716;7.086;2023-04-05T11:56:36;100898.34;;;11.54;38.56
32131;BME280;18639;50.716;7.086;2023-04-05T11:59:02;100886.44;;;11.52;37.53
32131;BME280;18639;50.716;7.086;2023-04-05T12:01:27;100885.69;;;11.64;37.32
32131;BME280;18639;50.716;7.086;2023-04-05T12:03:54;100881.91;;;11.69;39.33
32131;BME280;18639;50.716;7.086;2023-04-05T12:06:24;100879.13;;;11.58;37.95
32131;BME280;18639;50.716;7.086;2023-04-05T12:08:50;100887.88;;;11.70;38.03
32131;BME280;18639;50.716;7.086;2023-04-05T12:11:28;100879.84;;;11.60;37.24
32131;BME280;18639;50.716;7.086;2023-04-05T12:13:56;100876.25;;;11.63;38.53
32131;BME280;18639;50.716;7.086;2023-04-05T12:16:22;100887.16;;;11.68;37.19
32131;BME280;18639;50.716;7.086;2023-04-05T12:18:56;100874.31;;;11.52;38.66
32131;BME280;18639;50.716;7.086;2023-04-05T12:21:22;100884.38;;;11.71;38.93
32131;BME280;18639;50.716;7.086;2023-04-05T12:23:51;100878.16;;;11.75;38.09
32131;BME280;18639;50.716;7.086;2023-04-05T12:26:17;100880.81;;;11.73;37.87
32131;BME280;18639;50.716;7.086;2023-04-05T12:28:53;100881.06;;;11.69;37.75
32131;BME280;18639;50.716;7.086;2023-04-05T12:31:38;100861.66;;;11.48;36.68
32131;BME280;18639;50.716;7.086;2023-04-05T12:34:03;100879.78;;;11.48;39.26
32131;BME280;18639;50.716;7.086;2023-04-05T12:36:29;100873.84;;;11.60;38.49
32131;BME280;18639;50.716;7.086;2023-04-05T12:38:55;100848.25;;;11.41;38.94
32131;BME280;18639;50.716;7.086;2023-04-05T12:41:27;100855.72;;;11.46;38.06
32131;BME280;18639;50.716;7.086;2023-04-05T12:43:54;100849.16;;;11.54;37.19
32131;BME280;18639;50.716;7.086;2023-04-05T12:46:37;100865.91;;;11.63;37.59
32131;BME280;18639;50.716;7.086;2023-04-05T12:49:03;100840.47;;;11.41;37.90
32131;BME280;18639;50.716;7.086;2023-04-05T12:51:30;100852.28;;;11.59;38.71
32131;BME280;18639;50.716;7.086;2023-04-05T12:53:56;100818.94;;;11.40;38.28
32131;BME280;18639;50.716;7.086;2023-04-05T12:56:21;100772.19;;;11.15;38.35
32131;BME280;18639;50.716;7.086;2023-04-05T12:58:48;100820.31;;;11.60;38.03
32131;BME280;18639;50.716;7.086;2023-04-05T13:01:16;100840.94;;;11.76;37.05
32131;BME280;18639;50.716;7.086;2023-04-05T13:03:44;100841.31;;;11.84;37.92
32131;BME280;18639;50.716;7.086;2023-04-05T13:06:10;100845.38;;;11.88;37.40
32131;BME280;18639;50.716;7.086;2023-04-05T13:08:35;100822.94;;;11.74;37.94
32131;BME280;18639;50.716;7.086;2023-04-05T13:11:00;100844.19;;;11.79;37.77
32131;BME280;18639;50.716;7.086;2023-04-05T13:13:26;100844.50;;;11.75;38.42
32131;BME280;18639;50.716;7.086;2023-04-05T13:15:51;100758.34;;;11.30;37.33
32131;BME280;18639;50.716;7.086;2023-04-05T13:18:16;100823.66;;;11.62;38.04
32131;BME280;18639;50.716;7.086;2023-04-05T13:20:42;100828.28;;;11.57;37.23
32131;BME280;18639;50.716;7.086;2023-04-05T13:23:07;100837.34;;;11.64;37.91
32131;BME280;18639;50.716;7.086;2023-04-05T13:25:37;100822.06;;;11.60;38.25